Time;durP1;ratioP1;P1;durP2;ratioP2;P2;SDS_P1;SDS_P2;PMS_P1;PMS_P2;Temp;Humidity;BMP_temperature;BMP_pressure;BME280_temperature;BME280_humidity;BME280_pressure;Samples;Min_cycle;Max_cycle;Signal;HPM_P1;HPM_P2
2022/10/22 00:01:12;;;;;;;40.40;25.52;;;7.20;99.90;;;;;;5115231;28;20110;-80
2022/10/22 00:03:37;;;;;;;43.17;26.77;;;7.20;99.90;;;;;;5115057;27;20027;-75
2022/10/22 00:06:03;;;;;;;46.00;25.42;;;7.20;99.90;;;;;;5113667;28;20016;-74
2022/10/22 00:08:29;;;;;;;43.22;25.25;;;7.20;99.90;;;;;;5114975;28;20031;-75
2022/10/22 00:10:54;;;;;;;40.47;23.77;;;7.10;99.90;;;;;;5114801;27;20019;-74
2022/10/22 00:13:21;;;;;;;36.45;23.98;;;7.10;99.90;;;;;;5114933;28;20023;-75
2022/10/22 00:15:46;;;;;;;38.75;23.25;;;7.10;99.90;;;;;;5113955;28;20053;-74
2022/10/22 00:18:12;;;;;;;37.47;24.10;;;7.10;99.90;;;;;;5111714;28;20020;-75
2022/10/22 00:20:37;;;;;;;42.28;24.40;;;7.20;99.90;;;;;;5094459;28;20043;-74
2022/10/22 00:23:03;;;;;;;40.97;23.73;;;7.20;99.90;;;;;;5095363;28;20469;-79
2022/10/22 00:25:29;;;;;;;38.58;22.90;;;7.20;99.90;;;;;;5114562;28;20024;-79
2022/10/22 00:27:55;;;;;;;34.92;22.30;;;7.20;99.90;;;;;;5104016;28;20466;-79
2022/10/22 00:30:20;;;;;;;42.42;22.48;;;7.10;99.90;;;;;;5094127;28;20028;-74
2022/10/22 00:32:46;;;;;;;34.35;22.00;;;7.10;99.90;;;;;;5094182;28;20520;-80
2022/10/22 00:35:12;;;;;;;41.35;22.67;;;7.10;99.90;;;;;;5092501;28;20032;-74
2022/10/22 00:37:37;;;;;;;37.95;23.25;;;7.10;99.90;;;;;;5105443;28;20028;-79
2022/10/22 00:40:04;;;;;;;40.88;21.90;;;7.10;99.90;;;;;;5114209;28;20051;-74
2022/10/22 00:42:30;;;;;;;40.65;22.73;;;7.10;99.90;;;;;;5113242;28;20468;-79
2022/10/22 00:45:07;;;;;;;36.17;22.67;;;7.10;99.90;;;;;;5098863;28;20027;-80
2022/10/22 00:47:38;;;;;;;42.08;22.75;;;7.10;99.90;;;;;;5093988;28;20089;-80
2022/10/22 00:50:11;;;;;;;34.38;21.17;;;7.10;99.90;;;;;;5108905;28;20024;-74
2022/10/22 00:52:37;;;;;;;32.88;21.15;;;7.00;99.90;;;;;;5112953;28;20024;-79
2022/10/22 00:55:04;;;;;;;33.10;20.60;;;7.00;99.90;;;;;;5112727;28;20027;-73
2022/10/22 00:57:30;;;;;;;32.85;20.33;;;7.00;99.90;;;;;;5112301;28;20069;-74
2022/10/22 00:59:56;;;;;;;30.13;18.98;;;7.00;99.90;;;;;;5093566;28;20024;-80
2022/10/22 01:02:22;;;;;;;32.78;19.25;;;7.00;99.90;;;;;;5092313;28;20020;-79
2022/10/22 01:04:48;;;;;;;30.95;18.95;;;7.00;99.90;;;;;;5093508;28;20028;-79
2022/10/22 01:07:20;;;;;;;32.13;20.13;;;7.00;99.90;;;;;;5093688;28;20427;-79
2022/10/22 01:09:49;;;;;;;34.28;19.70;;;7.00;99.90;;;;;;5093365;28;20020;-79
2022/10/22 01:12:37;;;;;;;34.55;21.75;;;7.00;99.90;;;;;;5092344;28;20015;-74
2022/10/22 01:15:22;;;;;;;31.75;18.27;;;7.00;99.90;;;;;;5093445;28;20123;-80
2022/10/22 01:18:15;;;;;;;36.92;21.60;;;6.90;99.90;;;;;;5072186;28;20094;-79
2022/10/22 01:20:56;;;;;;;37.10;19.63;;;6.90;99.90;;;;;;5073247;28;20467;-74
2022/10/22 01:23:42;;;;;;;32.08;20.08;;;6.90;99.90;;;;;;5083684;28;20377;-80
2022/10/22 01:26:34;;;;;;;31.85;19.65;;;6.90;99.90;;;;;;5096533;28;20025;-80
2022/10/22 01:29:08;;;;;;;31.95;19.05;;;6.80;99.90;;;;;;5097911;28;20413;-79
2022/10/22 01:31:47;;;;;;;29.58;19.08;;;6.80;99.90;;;;;;5097655;28;20044;-80
2022/10/22 01:34:16;;;;;;;28.00;19.10;;;6.70;99.90;;;;;;5104628;28;20423;-74
2022/10/22 01:36:44;;;;;;;33.05;19.90;;;6.70;99.90;;;;;;5117383;28;20044;-79
2022/10/22 01:39:11;;;;;;;30.23;19.67;;;6.60;99.90;;;;;;5117808;28;20052;-74
2022/10/22 01:41:38;;;;;;;28.35;18.13;;;6.60;99.90;;;;;;5099332;28;20060;-74
2022/10/22 01:44:04;;;;;;;30.90;18.42;;;6.60;99.90;;;;;;5097365;28;20031;-75
2022/10/22 01:46:30;;;;;;;30.50;17.58;;;6.60;99.90;;;;;;5097341;28;20028;-79
2022/10/22 01:49:15;;;;;;;31.10;19.08;;;6.60;99.90;;;;;;5095895;28;20062;-80
2022/10/22 01:52:27;;;;;;;32.70;18.65;;;6.60;99.90;;;;;;5095774;28;20027;-74
2022/10/22 01:55:15;;;;;;;26.98;18.27;;;6.60;99.90;;;;;;5054822;28;20036;-74
2022/10/22 01:57:52;;;;;;;28.13;16.73;;;6.60;99.90;;;;;;5099283;28;20020;-79
2022/10/22 02:00:18;;;;;;;25.33;18.30;;;6.50;99.90;;;;;;5117625;28;20016;-79
2022/10/22 02:02:57;;;;;;;30.67;17.15;;;6.50;99.90;;;;;;5117534;28;20051;-74
2022/10/22 02:05:29;;;;;;;33.33;18.75;;;6.40;99.90;;;;;;5117424;28;20110;-74
2022/10/22 02:08:05;;;;;;;31.38;18.80;;;6.40;99.90;;;;;;5117524;28;20055;-79
2022/10/22 02:10:31;;;;;;;28.38;18.58;;;6.40;99.90;;;;;;5105410;28;20024;-80
2022/10/22 02:13:00;;;;;;;25.70;17.02;;;6.30;99.90;;;;;;5095548;28;20434;-75
2022/10/22 02:15:28;;;;;;;30.25;17.95;;;6.30;99.90;;;;;;5096515;28;20036;-80
2022/10/22 02:17:56;;;;;;;30.25;18.58;;;6.30;99.90;;;;;;5096716;28;20029;-75
2022/10/22 02:20:27;;;;;;;29.00;18.73;;;6.30;99.90;;;;;;5096680;28;20461;-74
2022/10/22 02:22:53;;;;;;;27.38;17.30;;;6.30;99.90;;;;;;5095328;28;20366;-74
2022/10/22 02:25:21;;;;;;;26.80;17.02;;;6.40;99.90;;;;;;5095368;28;20046;-74
2022/10/22 02:28:11;;;;;;;26.33;16.42;;;6.40;99.90;;;;;;5099475;28;20024;-74
2022/10/22 02:30:40;;;;;;;24.77;17.17;;;6.40;99.90;;;;;;5116578;28;20067;-74
2022/10/22 02:33:14;;;;;;;29.45;16.42;;;6.50;99.90;;;;;;5116857;28;20443;-74
2022/10/22 02:35:41;;;;;;;26.75;15.80;;;6.50;99.90;;;;;;5115498;28;20606;-77
2022/10/22 02:38:08;;;;;;;30.70;17.40;;;6.50;99.90;;;;;;5099335;28;20081;-80
2022/10/22 02:40:34;;;;;;;26.52;16.17;;;6.50;99.90;;;;;;5094634;28;20054;-74
2022/10/22 02:43:02;;;;;;;31.65;17.05;;;6.50;99.90;;;;;;5094951;28;20107;-79
2022/10/22 02:45:28;;;;;;;26.85;16.98;;;6.50;99.90;;;;;;5096048;28;20020;-74
2022/10/22 02:47:54;;;;;;;27.77;18.15;;;6.40;99.90;;;;;;5096107;28;20019;-80
2022/10/22 02:50:19;;;;;;;26.20;16.88;;;6.40;99.90;;;;;;5113531;28;20019;-79
2022/10/22 02:52:45;;;;;;;27.42;15.95;;;6.50;99.90;;;;;;5116370;28;20401;-74
2022/10/22 02:55:11;;;;;;;27.70;16.55;;;6.50;99.90;;;;;;5107231;28;20127;-74
2022/10/22 02:57:36;;;;;;;27.17;16.67;;;6.40;99.90;;;;;;5095890;28;20359;-79
2022/10/22 03:00:04;;;;;;;23.88;15.55;;;6.40;99.90;;;;;;5095894;28;20060;-73
2022/10/22 03:02:29;;;;;;;25.80;16.25;;;6.40;99.90;;;;;;5095724;28;20030;-75
2022/10/22 03:04:55;;;;;;;28.55;16.63;;;6.40;99.90;;;;;;5095909;28;20095;-80
2022/10/22 03:07:20;;;;;;;26.85;14.55;;;6.40;99.90;;;;;;5095664;28;20027;-79
2022/10/22 03:09:46;;;;;;;27.67;16.67;;;6.40;99.90;;;;;;5094400;28;20106;-74
2022/10/22 03:12:12;;;;;;;27.00;17.25;;;6.40;99.90;;;;;;5095675;28;20385;-75
2022/10/22 03:14:37;;;;;;;25.42;17.08;;;6.40;99.90;;;;;;5095551;28;20039;-79
2022/10/22 03:17:03;;;;;;;28.52;15.93;;;6.40;99.90;;;;;;5095534;28;20024;-74
2022/10/22 03:19:28;;;;;;;27.33;15.75;;;6.40;99.90;;;;;;5095575;28;20028;-74
2022/10/22 03:21:59;;;;;;;24.05;16.05;;;6.40;99.90;;;;;;5099550;28;20024;-79
2022/10/22 03:24:30;;;;;;;25.60;15.95;;;6.40;99.90;;;;;;5100803;28;20021;-74
2022/10/22 03:26:56;;;;;;;27.75;16.42;;;6.30;99.90;;;;;;5095610;28;20493;-79
2022/10/22 03:29:24;;;;;;;25.80;15.27;;;6.30;99.90;;;;;;5095384;28;20023;-74
2022/10/22 03:31:49;;;;;;;27.58;16.55;;;6.20;99.90;;;;;;5108499;28;20026;-79
2022/10/22 03:34:15;;;;;;;29.10;17.90;;;6.10;99.90;;;;;;5115635;28;20040;-75
2022/10/22 03:36:41;;;;;;;26.67;16.85;;;6.00;99.90;;;;;;5115667;28;20024;-74
2022/10/22 03:39:07;;;;;;;27.25;16.48;;;6.00;99.90;;;;;;5115549;28;20093;-74
2022/10/22 03:41:34;;;;;;;32.15;19.48;;;5.90;99.90;;;;;;5114369;28;20043;-74
2022/10/22 03:44:01;;;;;;;26.77;15.95;;;5.90;99.90;;;;;;5108258;28;20020;-74
2022/10/22 03:46:27;;;;;;;30.88;18.75;;;5.90;99.90;;;;;;5095056;28;20024;-79
2022/10/22 03:48:53;;;;;;;29.70;17.80;;;5.90;99.90;;;;;;5093778;28;20074;-74
2022/10/22 03:51:18;;;;;;;27.42;17.20;;;5.80;99.90;;;;;;5092630;28;20024;-74
2022/10/22 03:53:44;;;;;;;28.40;16.70;;;5.80;99.90;;;;;;5094792;28;20079;-79
2022/10/22 03:56:11;;;;;;;30.52;17.33;;;5.80;99.90;;;;;;5093639;28;20030;-73
2022/10/22 03:58:39;;;;;;;25.77;17.25;;;5.70;99.90;;;;;;5106100;28;20027;-79
2022/10/22 04:01:10;;;;;;;31.58;18.02;;;5.70;99.90;;;;;;5115234;28;20023;-74
2022/10/22 04:03:36;;;;;;;25.80;17.75;;;5.60;99.90;;;;;;5112414;28;20019;-79
2022/10/22 04:06:04;;;;;;;27.83;18.13;;;5.60;99.90;;;;;;5093371;28;20055;-79
2022/10/22 04:08:29;;;;;;;28.77;17.85;;;5.60;99.90;;;;;;5094564;28;20401;-79
2022/10/22 04:10:55;;;;;;;26.27;17.15;;;5.60;99.90;;;;;;5094559;28;20024;-79
2022/10/22 04:13:21;;;;;;;26.90;16.13;;;5.60;99.90;;;;;;5094642;28;20027;-79
2022/10/22 04:15:46;;;;;;;32.40;18.23;;;5.60;99.90;;;;;;5094459;28;20468;-74
2022/10/22 04:18:12;;;;;;;27.75;16.30;;;5.60;99.90;;;;;;5094327;28;20034;-78
2022/10/22 04:20:37;;;;;;;24.48;16.50;;;5.60;99.90;;;;;;5093115;28;20028;-75
2022/10/22 04:23:03;;;;;;;23.95;16.48;;;5.60;99.90;;;;;;5098018;28;20422;-79
2022/10/22 04:25:28;;;;;;;29.00;15.45;;;5.60;99.90;;;;;;5104464;28;20028;-74
2022/10/22 04:27:54;;;;;;;23.75;15.40;;;5.50;99.90;;;;;;5094205;28;20382;-74
2022/10/22 04:30:20;;;;;;;33.63;16.25;;;5.50;99.90;;;;;;5094785;28;20020;-74
2022/10/22 04:32:45;;;;;;;21.70;14.73;;;5.40;99.90;;;;;;5113358;28;20377;-74
2022/10/22 04:35:11;;;;;;;22.98;15.20;;;5.40;99.90;;;;;;5114411;28;20040;-80
2022/10/22 04:37:36;;;;;;;22.83;14.57;;;5.30;99.90;;;;;;5113181;28;20031;-77
2022/10/22 04:40:03;;;;;;;22.92;14.43;;;5.30;99.90;;;;;;5114000;28;20506;-74
2022/10/22 04:42:28;;;;;;;29.77;15.50;;;5.20;99.90;;;;;;5114494;28;20028;-74
2022/10/22 04:44:54;;;;;;;29.08;16.52;;;5.20;99.90;;;;;;5097767;28;20106;-74
2022/10/22 04:47:20;;;;;;;32.28;17.80;;;5.10;99.90;;;;;;5094011;28;20024;-75
2022/10/22 04:49:45;;;;;;;24.20;15.80;;;5.10;99.90;;;;;;5093774;28;20031;-79
2022/10/22 04:52:11;;;;;;;29.92;18.35;;;5.10;99.90;;;;;;5101496;28;20027;-79
2022/10/22 04:54:37;;;;;;;34.92;19.15;;;5.00;99.90;;;;;;5112647;28;20036;-75
2022/10/22 04:57:02;;;;;;;32.95;17.80;;;4.80;99.90;;;;;;5114224;28;20362;-79
2022/10/22 04:59:28;;;;;;;31.38;18.05;;;4.80;99.90;;;;;;5094099;28;20103;-74
2022/10/22 05:01:54;;;;;;;33.42;17.88;;;4.90;99.90;;;;;;5107044;28;20016;-75
2022/10/22 05:04:19;;;;;;;29.02;18.05;;;4.80;99.90;;;;;;5114056;28;20019;-79
2022/10/22 05:06:45;;;;;;;29.92;19.10;;;4.90;99.90;;;;;;5112650;28;20176;-74
2022/10/22 05:09:14;;;;;;;33.85;19.25;;;4.80;99.90;;;;;;5113907;28;20103;-74
2022/10/22 05:11:44;;;;;;;58.92;32.78;;;4.90;99.90;;;;;;5113915;28;20046;-74
2022/10/22 05:14:10;;;;;;;36.90;22.40;;;4.90;99.90;;;;;;5097673;28;20031;-74
2022/10/22 05:16:37;;;;;;;29.02;18.77;;;4.80;99.90;;;;;;5092784;28;20047;-74
2022/10/22 05:19:03;;;;;;;33.78;20.15;;;4.80;99.90;;;;;;5094249;28;20359;-80
2022/10/22 05:21:28;;;;;;;28.75;18.15;;;4.80;99.90;;;;;;5092281;28;20110;-79
2022/10/22 05:23:55;;;;;;;31.00;18.08;;;4.80;99.90;;;;;;5104522;28;20085;-75
2022/10/22 05:26:22;;;;;;;25.75;17.02;;;4.80;99.90;;;;;;5108317;28;20073;-74
2022/10/22 05:28:48;;;;;;;27.95;16.90;;;4.80;99.90;;;;;;5092912;28;20024;-74
2022/10/22 05:31:15;;;;;;;26.23;16.98;;;4.80;99.90;;;;;;5100100;28;20047;-74
2022/10/22 05:33:42;;;;;;;29.70;17.70;;;4.90;99.90;;;;;;5112482;28;20100;-74
2022/10/22 05:36:11;;;;;;;31.10;18.85;;;4.90;99.90;;;;;;5113486;28;20032;-74
2022/10/22 05:38:36;;;;;;;31.65;20.40;;;4.90;99.90;;;;;;5090337;28;20377;-77
2022/10/22 05:41:10;;;;;;;32.92;17.60;;;4.80;99.90;;;;;;5107874;28;20052;-77
2022/10/22 05:43:37;;;;;;;32.35;18.98;;;4.80;99.90;;;;;;5090924;27;20116;-76
2022/10/22 05:46:05;;;;;;;27.98;17.33;;;4.70;99.90;;;;;;5093089;28;20024;-75
2022/10/22 05:48:31;;;;;;;27.58;18.50;;;4.70;99.90;;;;;;5090196;27;20461;-75
2022/10/22 05:51:04;;;;;;;30.80;18.95;;;4.80;99.90;;;;;;5093131;28;20362;-75
2022/10/22 05:53:35;;;;;;;31.52;18.75;;;4.70;99.90;;;;;;5101917;28;20465;-75
2022/10/22 05:56:07;;;;;;;31.88;19.35;;;4.80;99.90;;;;;;5102756;28;20040;-75
2022/10/22 05:58:33;;;;;;;29.35;19.20;;;4.80;99.90;;;;;;5111035;28;20469;-75
2022/10/22 06:01:07;;;;;;;30.25;19.10;;;4.80;99.90;;;;;;5111836;28;20023;-74
2022/10/22 06:03:32;;;;;;;31.73;20.90;;;4.80;99.90;;;;;;5110377;28;20028;-75
2022/10/22 06:06:14;;;;;;;39.67;21.48;;;4.90;99.90;;;;;;5111538;28;20592;-74
2022/10/22 06:08:39;;;;;;;31.00;19.42;;;4.90;99.90;;;;;;5111988;28;20020;-73
2022/10/22 06:11:05;;;;;;;36.53;22.40;;;4.90;99.90;;;;;;5110804;28;20086;-71
2022/10/22 06:13:31;;;;;;;31.90;18.98;;;5.00;99.90;;;;;;5107277;28;20069;-72
2022/10/22 06:15:57;;;;;;;33.03;20.38;;;5.00;99.90;;;;;;5101867;28;20044;-72
2022/10/22 06:18:23;;;;;;;34.33;19.92;;;5.10;99.90;;;;;;5108893;28;20019;-72
2022/10/22 06:20:48;;;;;;;32.78;21.35;;;5.30;99.90;;;;;;5100225;28;20040;-71
2022/10/22 06:23:14;;;;;;;39.10;21.73;;;5.40;99.90;;;;;;5104160;28;20043;-75
2022/10/22 06:25:42;;;;;;;37.40;20.90;;;5.50;99.90;;;;;;5107782;28;20093;-75
2022/10/22 06:40:29;;;;;;;31.25;20.70;;;5.80;99.90;;;;;;5176973;27;20498;-73
2022/10/22 06:42:55;;;;;;;30.10;21.45;;;6.90;99.90;;;;;;5144852;27;20031;-73
2022/10/22 06:45:20;;;;;;;29.42;19.42;;;7.00;99.90;;;;;;5151415;27;20065;-76
2022/10/22 06:47:46;;;;;;;38.58;24.95;;;7.10;99.90;;;;;;5144134;27;20446;-76
2022/10/22 06:50:12;;;;;;;42.45;25.75;;;7.30;99.90;;;;;;5147511;27;20027;-76
2022/10/22 06:52:37;;;;;;;41.10;22.80;;;7.40;99.90;;;;;;5148761;27;20019;-76
2022/10/22 06:55:03;;;;;;;40.55;24.50;;;7.50;99.90;;;;;;5150920;27;20031;-73
2022/10/22 06:57:30;;;;;;;34.55;22.65;;;7.60;99.90;;;;;;5151337;27;20035;-73
2022/10/22 06:59:55;;;;;;;37.78;23.83;;;7.80;99.90;;;;;;5150846;27;20007;-76
2022/10/22 07:02:21;;;;;;;35.40;22.15;;;7.90;99.90;;;;;;5150364;27;20114;-76
2022/10/22 07:04:46;;;;;;;34.28;21.88;;;8.00;99.90;;;;;;5136519;27;20049;-76
2022/10/22 07:07:13;;;;;;;32.28;21.75;;;8.10;99.90;;;;;;5145140;27;20042;-72
2022/10/22 07:09:39;;;;;;;29.02;20.42;;;8.30;99.90;;;;;;5141036;27;20038;-73
2022/10/22 07:12:05;;;;;;;31.95;19.25;;;8.50;99.90;;;;;;5144584;27;20552;-73
2022/10/22 07:14:31;;;;;;;30.70;19.00;;;8.70;99.90;;;;;;5140974;27;20023;-72
2022/10/22 07:16:56;;;;;;;34.80;20.27;;;8.80;99.90;;;;;;5149199;27;20527;-73
2022/10/22 07:19:22;;;;;;;33.30;18.60;;;8.90;99.90;;;;;;5150294;27;20854;-71
2022/10/22 07:21:47;;;;;;;27.02;17.85;;;9.10;99.90;;;;;;5150597;27;20015;-72
2022/10/22 07:24:13;;;;;;;26.35;17.45;;;9.10;99.90;;;;;;5151009;27;20065;-77
2022/10/22 07:26:39;;;;;;;27.90;16.88;;;9.10;99.90;;;;;;5149283;27;20034;-76
2022/10/22 07:29:04;;;;;;;27.50;17.20;;;9.10;99.90;;;;;;5150845;27;20038;-72
2022/10/22 07:31:30;;;;;;;31.70;18.80;;;9.20;99.90;;;;;;5150444;27;20027;-76
2022/10/22 07:33:56;;;;;;;24.33;17.05;;;9.20;99.90;;;;;;5143463;27;20020;-72
2022/10/22 07:36:22;;;;;;;28.80;18.05;;;9.30;99.90;;;;;;5145412;27;20471;-76
2022/10/22 07:38:52;;;;;;;29.35;18.48;;;9.30;99.90;;;;;;5147439;27;20053;-77
2022/10/22 07:41:18;;;;;;;27.50;17.30;;;9.30;99.90;;;;;;5136069;27;20058;-76
2022/10/22 07:43:45;;;;;;;27.13;18.35;;;9.30;99.90;;;;;;5125370;27;20105;-72
2022/10/22 07:46:10;;;;;;;28.17;19.05;;;9.30;99.90;;;;;;5134915;27;20028;-73
2022/10/22 07:48:36;;;;;;;23.83;16.42;;;9.40;99.90;;;;;;5134694;27;20037;-73
2022/10/22 07:51:02;;;;;;;25.33;17.48;;;9.40;99.90;;;;;;5136146;27;20028;-73
2022/10/22 07:53:28;;;;;;;27.20;18.23;;;9.40;99.90;;;;;;5132190;27;20027;-72
2022/10/22 07:55:54;;;;;;;30.80;18.15;;;9.40;99.90;;;;;;5125800;27;20472;-73
2022/10/22 07:58:21;;;;;;;27.45;18.83;;;9.40;99.90;;;;;;5136136;27;20051;-72
2022/10/22 08:00:48;;;;;;;29.85;17.20;;;9.50;99.90;;;;;;5134741;27;20053;-72
2022/10/22 08:03:15;;;;;;;28.67;18.67;;;9.50;99.90;;;;;;5135573;27;20380;-72
2022/10/22 08:05:44;;;;;;;27.80;18.15;;;9.60;99.90;;;;;;5122456;27;20126;-72
2022/10/22 08:08:11;;;;;;;29.33;18.70;;;9.60;99.90;;;;;;5129293;27;20430;-72
2022/10/22 08:10:37;;;;;;;29.50;18.45;;;9.70;99.90;;;;;;5132937;27;20067;-72
2022/10/22 08:13:04;;;;;;;31.23;20.50;;;9.80;99.90;;;;;;5136208;27;20098;-73
2022/10/22 08:15:30;;;;;;;25.90;17.42;;;9.90;99.90;;;;;;5134424;27;20498;-72
2022/10/22 08:17:56;;;;;;;27.25;17.88;;;9.90;99.90;;;;;;5124914;27;20043;-73
2022/10/22 08:20:21;;;;;;;26.70;17.20;;;10.00;99.90;;;;;;5131501;27;20027;-72
2022/10/22 08:22:47;;;;;;;26.10;16.95;;;10.10;99.90;;;;;;5117272;27;20027;-72
2022/10/22 08:25:14;;;;;;;25.42;17.77;;;10.20;99.90;;;;;;5131845;27;20512;-71
2022/10/22 08:27:40;;;;;;;25.90;16.83;;;10.30;99.90;;;;;;5135802;27;20096;-76
2022/10/22 08:30:06;;;;;;;23.73;15.52;;;10.30;99.90;;;;;;5135429;27;20039;-76
2022/10/22 08:32:32;;;;;;;32.83;16.67;;;10.30;99.90;;;;;;5135188;27;20022;-76
2022/10/22 08:34:58;;;;;;;25.17;15.68;;;10.40;99.90;;;;;;5111776;27;20024;-72
2022/10/22 08:37:24;;;;;;;24.55;16.25;;;10.40;99.90;;;;;;5118760;27;20015;-73
2022/10/22 08:39:50;;;;;;;27.42;14.73;;;10.50;99.90;;;;;;5128868;27;20656;-72
2022/10/22 08:42:24;;;;;;;23.58;16.33;;;10.50;99.90;;;;;;5135699;27;20051;-76
2022/10/22 08:44:59;;;;;;;22.55;15.55;;;10.60;99.90;;;;;;5134968;27;20037;-76
2022/10/22 08:48:02;;;;;;;24.52;15.85;;;10.60;99.90;;;;;;5134495;27;20076;-76
2022/10/22 08:50:46;;;;;;;23.48;14.98;;;10.60;99.90;;;;;;5122540;27;20045;-72
2022/10/22 08:53:16;;;;;;;24.40;15.68;;;10.60;99.90;;;;;;5133745;27;20026;-71
2022/10/22 08:55:43;;;;;;;24.95;14.60;;;10.70;99.90;;;;;;5134649;27;20023;-71
2022/10/22 08:58:21;;;;;;;19.50;13.93;;;10.80;99.90;;;;;;5119683;27;20016;-71
2022/10/22 09:00:57;;;;;;;27.38;15.35;;;10.80;99.90;;;;;;5135104;27;20022;-76
2022/10/22 09:03:30;;;;;;;24.27;14.75;;;10.80;99.90;;;;;;5134968;27;20031;-73
2022/10/22 09:06:06;;;;;;;19.50;14.05;;;10.80;99.90;;;;;;5135498;27;20035;-72
2022/10/22 09:08:33;;;;;;;25.35;15.15;;;10.90;99.90;;;;;;5122926;27;20038;-72
2022/10/22 09:11:11;;;;;;;25.30;14.75;;;11.00;99.90;;;;;;5127120;27;20019;-72
2022/10/22 09:13:37;;;;;;;27.33;16.10;;;11.00;99.90;;;;;;5114746;28;20106;-76
2022/10/22 09:16:33;;;;;;;25.25;15.00;;;11.10;99.90;;;;;;5111655;27;20058;-72
2022/10/22 09:19:29;;;;;;;23.02;14.30;;;11.10;99.90;;;;;;5113549;28;20023;-71
2022/10/22 09:22:07;;;;;;;19.20;14.07;;;11.10;99.90;;;;;;5112732;28;20024;-76
2022/10/22 09:24:53;;;;;;;24.83;15.52;;;11.10;99.90;;;;;;5113791;28;20026;-71
2022/10/22 09:27:25;;;;;;;24.27;14.48;;;11.10;99.90;;;;;;5112731;28;20028;-76
2022/10/22 09:29:50;;;;;;;23.23;14.88;;;11.10;99.90;;;;;;5113673;28;20039;-76
2022/10/22 09:32:17;;;;;;;22.67;14.07;;;11.20;99.90;;;;;;5112536;28;20027;-75
2022/10/22 09:34:44;;;;;;;23.65;15.20;;;11.20;99.90;;;;;;5116557;27;20031;-76
2022/10/22 09:37:10;;;;;;;23.42;14.65;;;11.20;99.90;;;;;;5112135;28;20393;-76
2022/10/22 09:39:39;;;;;;;19.40;14.52;;;11.30;99.90;;;;;;5131091;27;20055;-76
2022/10/22 09:42:06;;;;;;;21.75;13.48;;;11.40;99.90;;;;;;5111650;28;20028;-76
2022/10/22 09:44:33;;;;;;;22.45;14.30;;;11.40;99.90;;;;;;5105726;28;20035;-76
2022/10/22 09:47:02;;;;;;;20.67;12.95;;;11.40;99.90;;;;;;5113461;28;20045;-76
2022/10/22 09:49:32;;;;;;;23.05;14.68;;;11.40;99.90;;;;;;5113076;28;20106;-76
2022/10/22 09:51:59;;;;;;;22.10;13.68;;;11.50;99.90;;;;;;5112969;27;20034;-76
2022/10/22 09:54:32;;;;;;;19.85;13.20;;;11.50;99.90;;;;;;5109853;28;20043;-76
2022/10/22 09:57:02;;;;;;;23.40;13.60;;;11.60;99.90;;;;;;5112007;27;20430;-76
2022/10/22 09:59:31;;;;;;;23.27;13.80;;;11.60;99.90;;;;;;5113252;28;20019;-75
2022/10/22 10:02:21;;;;;;;20.88;13.68;;;11.60;99.90;;;;;;5113192;28;20059;-72
2022/10/22 10:04:55;;;;;;;22.00;14.32;;;11.50;99.90;;;;;;5110811;28;20439;-76
2022/10/22 10:07:29;;;;;;;21.05;13.60;;;11.40;99.90;;;;;;5115784;27;20120;-71
2022/10/22 10:09:55;;;;;;;20.65;14.00;;;11.40;99.90;;;;;;5124328;27;20414;-76
2022/10/22 10:12:26;;;;;;;28.17;15.07;;;11.40;99.90;;;;;;5119185;27;20034;-76
2022/10/22 10:15:47;;;;;;;19.97;13.53;;;11.40;99.90;;;;;;5131998;27;20023;-71
2022/10/22 10:18:25;;;;;;;24.17;14.43;;;11.40;99.90;;;;;;5098664;27;20062;-72
2022/10/22 10:21:05;;;;;;;24.70;15.25;;;11.40;99.90;;;;;;5133312;27;20044;-71
2022/10/22 10:24:08;;;;;;;24.90;15.55;;;11.40;99.90;;;;;;5133263;27;20468;-72
2022/10/22 10:26:58;;;;;;;20.50;13.00;;;11.40;99.90;;;;;;5132503;27;20027;-72
2022/10/22 10:29:35;;;;;;;21.10;14.57;;;11.40;99.90;;;;;;5133165;28;20031;-69
2022/10/22 10:32:19;;;;;;;18.75;14.15;;;11.40;99.90;;;;;;5113745;28;20081;-70
2022/10/22 10:34:53;;;;;;;24.75;14.73;;;11.40;99.90;;;;;;5133039;28;20380;-72
2022/10/22 10:37:29;;;;;;;24.05;14.30;;;11.40;99.90;;;;;;5131868;28;20400;-72
2022/10/22 10:40:16;;;;;;;23.33;16.02;;;11.40;99.90;;;;;;5131020;28;20053;-72
2022/10/22 10:43:10;;;;;;;22.65;13.55;;;11.40;99.90;;;;;;5129186;28;20557;-72
2022/10/22 10:46:10;;;;;;;24.75;15.02;;;11.50;99.90;;;;;;5112314;28;20019;-72
2022/10/22 10:48:51;;;;;;;25.90;15.60;;;11.40;99.90;;;;;;5109622;28;20063;-73
2022/10/22 10:51:35;;;;;;;22.27;14.57;;;11.50;99.90;;;;;;5117741;28;20480;-72
2022/10/22 10:54:15;;;;;;;24.38;14.13;;;11.40;99.90;;;;;;5133188;28;20062;-72
2022/10/22 10:56:56;;;;;;;23.00;13.35;;;11.40;99.90;;;;;;5108723;28;20028;-72
2022/10/22 10:59:44;;;;;;;24.20;15.32;;;11.40;99.90;;;;;;5119960;28;20104;-72
2022/10/22 11:02:39;;;;;;;25.02;15.27;;;11.30;99.90;;;;;;5120101;28;20030;-72
2022/10/22 11:05:25;;;;;;;26.35;16.75;;;11.20;99.90;;;;;;5098662;28;20038;-72
2022/10/22 11:08:04;;;;;;;22.38;15.40;;;11.20;99.90;;;;;;5121511;28;20357;-72
2022/10/22 11:10:47;;;;;;;25.55;16.73;;;11.20;99.90;;;;;;5119041;28;20036;-72
2022/10/22 11:13:24;;;;;;;;;;;11.10;99.90;;;;;;5111762;28;20150;-72
2022/10/22 11:15:59;;;;;;;27.08;16.73;;;11.10;99.90;;;;;;5117741;27;19903;-72
2022/10/22 11:18:40;;;;;;;29.65;17.38;;;11.00;99.90;;;;;;5115912;27;20478;-72
2022/10/22 11:21:17;;;;;;;22.60;15.70;;;11.00;99.90;;;;;;5119909;27;20023;-72
2022/10/22 11:24:14;;;;;;;28.73;20.15;;;11.00;99.90;;;;;;5132887;27;20099;-70
2022/10/22 11:26:47;;;;;;;29.98;18.75;;;11.00;99.90;;;;;;5106327;27;20032;-77
2022/10/22 11:29:22;;;;;;;32.83;17.73;;;11.00;99.90;;;;;;5129557;27;20044;-77
2022/10/22 11:31:50;;;;;;;33.50;19.98;;;11.00;99.90;;;;;;5127900;27;20023;-72
2022/10/22 11:34:19;;;;;;;34.15;22.58;;;10.90;99.90;;;;;;5135964;27;20019;-76
2022/10/22 11:36:46;;;;;;;36.90;22.30;;;10.90;99.90;;;;;;5135308;27;20030;-73
2022/10/22 11:39:53;;;;;;;37.80;23.02;;;10.90;99.90;;;;;;5128174;27;20184;-72
2022/10/22 11:42:21;;;;;;;37.25;23.92;;;10.90;99.90;;;;;;5131692;27;20382;-71
2022/10/22 11:44:59;;;;;;;37.58;22.70;;;10.90;99.90;;;;;;5111946;28;20102;-71
2022/10/22 11:47:28;;;;;;;38.92;23.13;;;10.70;99.90;;;;;;5113576;27;20508;-77
2022/10/22 11:50:14;;;;;;;40.53;25.00;;;10.80;99.90;;;;;;5118355;27;20031;-71
2022/10/22 11:52:48;;;;;;;39.55;24.15;;;10.80;99.90;;;;;;5135602;27;20041;-71
2022/10/22 11:55:54;;;;;;;38.85;24.83;;;10.70;99.90;;;;;;5136394;27;20030;-71
2022/10/22 11:58:42;;;;;;;42.08;26.02;;;10.70;99.90;;;;;;5135502;27;20023;-76
2022/10/22 12:01:08;;;;;;;41.83;26.17;;;10.70;99.90;;;;;;5135175;27;20019;-76
2022/10/22 12:03:33;;;;;;;43.33;27.17;;;10.70;99.90;;;;;;5131931;27;20028;-72
2022/10/22 12:06:19;;;;;;;43.70;29.40;;;10.70;99.90;;;;;;5129964;27;20046;-76
2022/10/22 12:08:48;;;;;;;47.83;28.65;;;10.70;99.90;;;;;;5109237;27;20045;-76
2022/10/22 12:11:24;;;;;;;46.58;29.38;;;10.70;99.90;;;;;;5119363;27;20018;-76
2022/10/22 12:14:00;;;;;;;44.80;28.67;;;10.70;99.90;;;;;;5123754;27;20039;-71
2022/10/22 12:16:38;;;;;;;43.05;28.35;;;10.70;99.90;;;;;;5126273;27;20019;-72
2022/10/22 12:19:13;;;;;;;38.88;25.88;;;10.70;99.90;;;;;;5122092;27;20076;-76
2022/10/22 12:21:41;;;;;;;43.33;27.55;;;10.70;99.90;;;;;;5134008;27;20072;-76
2022/10/22 12:24:14;;;;;;;44.00;28.48;;;10.60;99.90;;;;;;5134207;27;20023;-72
2022/10/22 12:26:39;;;;;;;47.05;28.23;;;10.50;99.90;;;;;;5136094;27;20076;-71
2022/10/22 12:29:14;;;;;;;46.42;28.25;;;10.50;99.90;;;;;;5135757;27;20039;-72
2022/10/22 12:31:41;;;;;;;46.95;27.65;;;10.50;99.90;;;;;;5125295;27;20031;-76
2022/10/22 12:34:11;;;;;;;44.00;29.45;;;10.60;99.90;;;;;;5133902;27;20045;-76
2022/10/22 12:36:37;;;;;;;42.05;29.20;;;10.60;99.90;;;;;;5134744;27;20474;-76
2022/10/22 12:39:11;;;;;;;47.15;30.33;;;10.50;99.90;;;;;;5119764;27;20056;-70
2022/10/22 12:41:38;;;;;;;50.40;30.88;;;10.50;99.90;;;;;;5117070;27;20023;-70
2022/10/22 12:44:05;;;;;;;45.67;28.20;;;10.50;99.90;;;;;;5114395;27;20028;-70
2022/10/22 12:46:33;;;;;;;52.80;33.28;;;10.60;99.90;;;;;;5112224;27;20030;-71
2022/10/22 12:49:00;;;;;;;46.42;29.73;;;10.60;99.90;;;;;;5114736;27;20066;-72
2022/10/22 12:51:27;;;;;;;49.05;30.67;;;10.60;99.90;;;;;;5115592;27;20024;-70
2022/10/22 12:53:55;;;;;;;43.83;28.60;;;10.60;99.90;;;;;;5114689;27;20023;-70
2022/10/22 12:56:31;;;;;;;45.13;30.52;;;10.60;99.90;;;;;;5115973;27;20023;-70
2022/10/22 12:59:01;;;;;;;46.08;30.15;;;10.60;99.90;;;;;;5114259;27;20039;-70
2022/10/22 13:01:32;;;;;;;46.47;29.85;;;10.60;99.90;;;;;;5117656;27;20028;-71
2022/10/22 13:04:25;;;;;;;41.60;27.25;;;10.60;99.90;;;;;;5113708;27;20034;-70